Time;durP1;ratioP1;P1;durP2;ratioP2;P2;SDS_P1;SDS_P2;PMS_P1;PMS_P2;Temp;Humidity;BMP_temperature;BMP_pressure;BME280_temperature;BME280_humidity;BME280_pressure;Samples;Min_cycle;Max_cycle;Signal;HPM_P1;HPM_P2
2022/02/10 00:21:19;;;;;;;;;;;;;;;11.41;52.30;102601.44;145003;920;1022;-85
2022/02/10 00:24:25;;;;;;;;;;;;;;;11.44;52.19;102592.94;145003;923;1017;-84
2022/02/10 00:35:00;;;;;;;;;;;;;;;11.58;52.67;102601.47;145002;918;1016;-86
2022/02/10 00:37:36;;;;;;;;;;;;;;;11.40;54.71;102615.25;145002;926;1016;-84
2022/02/10 00:40:10;;;;;;;;;;;;;;;11.49;52.91;102596.69;145002;922;1020;-85
2022/02/10 00:42:36;;;;;;;;;;;;;;;11.59;52.63;102598.97;145002;926;1018;-86
2022/02/10 00:45:03;;;;;;;;;;;;;;;11.65;52.36;102610.56;145002;922;1018;-85
2022/02/10 00:47:44;;;;;;;;;;;;;;;11.65;52.37;102602.75;145002;916;1018;-85
2022/02/10 00:50:11;;;;;;;;;;;;;;;11.62;52.42;102603.47;145001;922;2000;-83
2022/02/10 00:52:41;;;;;;;;;;;;;;;11.62;52.20;102593.06;145002;927;1021;-84
2022/02/10 00:55:08;;;;;;;;;;;;;;;11.60;52.33;102605.97;145002;922;1017;-85
2022/02/10 00:57:34;;;;;;;;;;;;;;;11.59;52.32;102591.16;145002;927;1018;-85
2022/02/10 01:00:19;;;;;;;;;;;;;;;11.31;52.95;102590.44;145002;922;1020;-85
2022/02/10 01:14:36;;;;;;;;;;;;;;;11.14;52.91;102603.37;145002;922;1018;-84
2022/02/10 01:30:44;;;;;;;;;;;;;;;11.23;52.67;102592.59;145002;919;1023;-84
2022/02/10 01:33:11;;;;;;;;;;;;;;;11.25;52.83;102588.41;145002;914;1023;-84
2022/02/10 01:35:37;;;;;;;;;;;;;;;11.10;52.46;102587.50;145002;922;1020;-84
2022/02/10 01:38:03;;;;;;;;;;;;;;;11.12;52.84;102579.00;145002;915;1023;-83
2022/02/10 02:05:30;;;;;;;;;;;;;;;11.23;52.47;102585.72;145002;920;1017;-84
2022/02/10 02:07:59;;;;;;;;;;;;;;;11.31;52.62;102593.03;145002;927;1017;-86
2022/02/10 02:10:25;;;;;;;;;;;;;;;11.42;52.50;102589.34;145002;922;1016;-85
2022/02/10 02:12:51;;;;;;;;;;;;;;;11.53;52.38;102582.13;145002;927;1016;-84
2022/02/10 02:15:17;;;;;;;;;;;;;;;11.60;52.33;102579.06;145002;923;1018;-85
2022/02/10 02:17:47;;;;;;;;;;;;;;;11.65;52.25;102579.34;145002;926;1016;-85
2022/02/10 02:20:13;;;;;;;;;;;;;;;11.72;52.30;102582.31;145002;923;1021;-84
2022/02/10 02:22:39;;;;;;;;;;;;;;;11.76;51.83;102584.31;145002;923;1017;-84
2022/02/10 02:25:05;;;;;;;;;;;;;;;11.75;51.93;102594.62;145002;919;1022;-84
2022/02/10 02:27:48;;;;;;;;;;;;;;;11.50;52.55;102597.56;145002;927;1017;-83
2022/02/10 02:30:19;;;;;;;;;;;;;;;11.19;53.47;102601.03;145002;923;1017;-84
2022/02/10 02:33:05;;;;;;;;;;;;;;;11.23;53.07;102598.72;145002;927;1020;-84
2022/02/10 02:35:44;;;;;;;;;;;;;;;11.21;52.70;102592.50;145002;915;1021;-85
2022/02/10 02:38:49;;;;;;;;;;;;;;;11.22;52.87;102598.63;145002;923;1022;-85
2022/02/10 03:06:01;;;;;;;;;;;;;;;11.06;52.45;102609.84;145002;923;1020;-85
2022/02/10 03:08:27;;;;;;;;;;;;;;;10.98;52.38;102608.50;145002;923;1022;-85
2022/02/10 03:11:02;;;;;;;;;;;;;;;11.01;52.35;102606.97;145002;926;1019;-84
2022/02/10 03:13:34;;;;;;;;;;;;;;;11.04;52.25;102609.75;145002;923;1019;-84
2022/02/10 03:16:30;;;;;;;;;;;;;;;11.00;52.02;102612.09;145002;927;1020;-84
2022/02/10 03:19:02;;;;;;;;;;;;;;;10.86;51.94;102624.25;145002;914;1020;-85
2022/02/10 04:14:13;;;;;;;;;;;;;;;10.26;53.52;102647.50;145002;919;1020;-83
2022/02/10 04:16:45;;;;;;;;;;;;;;;9.75;54.60;102648.59;145002;926;1017;-83
2022/02/10 04:22:13;;;;;;;;;;;;;;;9.95;53.71;102653.34;145002;919;1023;-85
2022/02/10 04:28:13;;;;;;;;;;;;;;;10.21;53.00;102660.97;145001;923;2000;-83
2022/02/10 04:56:01;;;;;;;;;;;;;;;9.83;53.48;102685.38;145002;918;1022;-84
2022/02/10 05:24:22;;;;;;;;;;;;;;;10.51;52.43;102703.53;145002;922;1023;-87
2022/02/10 05:32:42;;;;;;;;;;;;;;;10.01;52.13;102699.56;145002;914;1018;-83
2022/02/10 05:35:31;;;;;;;;;;;;;;;10.25;52.88;102713.19;145002;923;1018;-83
2022/02/10 05:38:13;;;;;;;;;;;;;;;10.43;51.88;102713.44;145002;918;1019;-82
2022/02/10 05:43:40;;;;;;;;;;;;;;;10.62;52.08;102706.81;145002;919;1017;-83
2022/02/10 05:49:38;;;;;;;;;;;;;;;10.83;50.97;102707.22;145002;915;1018;-82
2022/02/10 06:40:47;;;;;;;;;;;;;;;10.84;52.23;102728.09;145002;929;1018;-83
2022/02/10 06:48:33;;;;;;;;;;;;;;;11.45;51.53;102742.94;145002;923;1016;-82
2022/02/10 06:51:01;;;;;;;;;;;;;;;11.65;50.77;102748.44;145002;915;1022;-83
2022/02/10 06:56:48;;;;;;;;;;;;;;;12.08;50.63;102757.00;145002;915;1018;-84
2022/02/10 07:08:16;;;;;;;;;;;;;;;13.87;48.09;102747.19;145002;914;1017;-85
2022/02/10 07:10:56;;;;;;;;;;;;;;;14.21;48.15;102759.25;145002;923;1021;-82
2022/02/10 07:16:51;;;;;;;;;;;;;;;14.80;47.33;102755.91;145002;922;1020;-84
2022/02/10 07:49:54;;;;;;;;;;;;;;;16.78;45.17;102761.31;145002;923;1021;-84
2022/02/10 07:55:36;;;;;;;;;;;;;;;16.96;43.90;102761.16;145002;918;1021;-84
2022/02/10 07:58:28;;;;;;;;;;;;;;;17.12;44.71;102759.97;145002;919;1023;-84
2022/02/10 08:59:57;;;;;;;;;;;;;;;19.50;39.51;102755.81;145002;918;1021;-82
2022/02/10 09:02:42;;;;;;;;;;;;;;;19.58;39.57;102761.22;145002;919;1019;-85
2022/02/10 09:08:45;;;;;;;;;;;;;;;19.47;39.02;102758.34;145002;918;1022;-84
2022/02/10 09:20:07;;;;;;;;;;;;;;;19.44;37.93;102750.38;145002;919;1020;-83
2022/02/10 09:48:04;;;;;;;;;;;;;;;19.45;39.53;102728.44;145002;884;1018;-86
2022/02/10 09:56:25;;;;;;;;;;;;;;;19.64;38.02;102729.78;145002;919;1020;-84
2022/02/10 10:02:04;;;;;;;;;;;;;;;19.60;34.46;102716.50;145002;914;1020;-84
2022/02/10 10:04:40;;;;;;;;;;;;;;;19.67;37.63;102718.44;145002;923;1019;-85
2022/02/10 10:07:21;;;;;;;;;;;;;;;19.67;38.15;102715.78;145002;919;1021;-85
2022/02/10 10:10:00;;;;;;;;;;;;;;;19.72;35.72;102708.88;145002;923;1019;-83
2022/02/10 10:13:13;;;;;;;;;;;;;;;19.72;36.66;102707.13;145002;919;1024;-85
2022/02/10 10:15:44;;;;;;;;;;;;;;;19.80;38.44;102694.16;145002;922;1021;-85
2022/02/10 10:18:42;;;;;;;;;;;;;;;19.73;38.25;102697.50;145002;923;1017;-86
2022/02/10 10:51:05;;;;;;;;;;;;;;;19.61;34.59;102649.78;145002;922;1019;-85
2022/02/10 10:56:33;;;;;;;;;;;;;;;19.34;33.77;102638.66;145002;919;1022;-85
2022/02/10 10:59:29;;;;;;;;;;;;;;;19.28;35.44;102641.13;145002;918;1022;-87
2022/02/10 11:22:20;;;;;;;;;;;;;;;17.69;32.95;102613.06;145002;922;1015;-81
2022/02/10 11:37:31;;;;;;;;;;;;;;;16.57;43.60;102589.28;145002;922;1017;-84
2022/02/10 11:39:58;;;;;;;;;;;;;;;16.29;45.50;102585.69;145002;915;1018;-91
2022/02/10 11:42:39;;;;;;;;;;;;;;;16.67;43.51;102574.75;145002;927;1020;-85
2022/02/10 12:00:55;;;;;;;;;;;;;;;15.90;44.35;102570.28;145002;922;1017;-86
2022/02/10 12:32:30;;;;;;;;;;;;;;;15.70;41.19;102532.88;145003;919;1022;-85
2022/02/10 14:14:05;;;;;;;;;;;;;;;14.73;42.90;102515.97;145002;919;1017;-88
2022/02/10 14:16:49;;;;;;;;;;;;;;;14.75;42.52;102516.03;145002;919;1019;-89
2022/02/10 14:19:37;;;;;;;;;;;;;;;14.89;41.82;102520.12;145002;919;1020;-86
2022/02/10 14:27:48;;;;;;;;;;;;;;;14.86;41.01;102505.19;145002;920;1020;-87
2022/02/10 14:30:15;;;;;;;;;;;;;;;14.97;39.52;102494.25;145002;919;1018;-84
2022/02/10 14:32:45;;;;;;;;;;;;;;;14.60;39.85;102496.28;145002;925;1022;-87
2022/02/10 14:38:21;;;;;;;;;;;;;;;14.84;42.06;102495.47;145001;923;2000;-88
2022/02/10 14:41:14;;;;;;;;;;;;;;;14.57;44.73;102500.44;145002;922;1018;-88
2022/02/10 15:11:49;;;;;;;;;;;;;;;14.58;44.34;102495.28;145002;924;1017;-86
2022/02/10 15:35:33;;;;;;;;;;;;;;;14.20;43.80;102488.44;145002;923;1020;-88
2022/02/10 15:53:19;;;;;;;;;;;;;;;13.92;43.32;102482.91;145002;915;1020;-88
2022/02/10 16:15:31;;;;;;;;;;;;;;;13.75;48.23;102492.59;145002;915;1020;-86
2022/02/10 16:17:49;;;;;;;;;;;;;;;13.68;49.94;102497.44;145002;922;1020;-85
2022/02/10 16:20:19;;;;;;;;;;;;;;;13.81;48.14;102501.50;145002;922;1021;-86
2022/02/10 16:23:00;;;;;;;;;;;;;;;13.80;49.38;102498.00;145002;927;1017;-87
2022/02/10 16:25:27;;;;;;;;;;;;;;;13.80;48.48;102498.00;145002;923;1017;-86
2022/02/10 16:28:07;;;;;;;;;;;;;;;13.67;51.93;102500.91;145002;926;1017;-87
2022/02/10 16:30:33;;;;;;;;;;;;;;;13.64;49.55;102492.94;145002;923;1021;-84
2022/02/10 16:32:59;;;;;;;;;;;;;;;13.62;49.33;102500.69;145002;922;1017;-89
2022/02/10 16:35:27;;;;;;;;;;;;;;;13.42;53.74;102510.19;145002;922;1017;-86
2022/02/10 16:37:54;;;;;;;;;;;;;;;13.51;49.67;102502.81;145002;927;1023;-87
2022/02/10 16:40:24;;;;;;;;;;;;;;;13.35;51.12;102514.25;145002;922;1019;-85
2022/02/10 16:42:52;;;;;;;;;;;;;;;13.53;49.49;102513.31;145002;926;1020;-85
2022/02/10 16:45:17;;;;;;;;;;;;;;;13.60;49.07;102510.16;145002;923;1017;-87
2022/02/10 16:47:44;;;;;;;;;;;;;;;13.61;49.12;102514.56;145002;922;1018;-88
2022/02/10 16:50:10;;;;;;;;;;;;;;;13.61;49.55;102509.34;145002;922;1017;-85
2022/02/10 16:52:45;;;;;;;;;;;;;;;13.66;49.53;102515.66;145002;927;1019;-87
2022/02/10 17:16:02;;;;;;;;;;;;;;;13.77;49.16;102527.47;145002;921;1019;-89
2022/02/10 17:20:45;;;;;;;;;;;;;;;13.77;49.15;102516.16;145002;919;1019;-87
2022/02/10 17:26:06;;;;;;;;;;;;;;;13.81;48.40;102519.78;145002;924;1020;-88
2022/02/10 17:28:36;;;;;;;;;;;;;;;13.78;48.82;102517.94;145002;923;1020;-85
2022/02/10 17:31:38;;;;;;;;;;;;;;;13.76;48.70;102525.69;145002;927;1020;-85
2022/02/10 17:34:13;;;;;;;;;;;;;;;13.74;48.52;102522.13;145002;914;1020;-89
2022/02/10 17:36:49;;;;;;;;;;;;;;;13.75;48.46;102525.63;145002;923;1023;-84
2022/02/10 17:42:21;;;;;;;;;;;;;;;13.81;48.38;102525.91;145002;920;1018;-85
2022/02/10 17:53:04;;;;;;;;;;;;;;;13.90;47.67;102521.13;145002;925;1018;-85
2022/02/10 17:55:33;;;;;;;;;;;;;;;13.92;47.61;102524.69;145002;922;1021;-87
2022/02/10 17:58:13;;;;;;;;;;;;;;;13.95;47.90;102522.22;145002;927;1017;-86
2022/02/10 18:00:44;;;;;;;;;;;;;;;14.01;47.77;102518.94;145002;923;1017;-85
2022/02/10 18:03:15;;;;;;;;;;;;;;;14.05;47.60;102518.28;145002;926;1020;-84
2022/02/10 18:08:46;;;;;;;;;;;;;;;14.07;47.90;102519.22;145002;921;1019;-87
2022/02/10 18:14:14;;;;;;;;;;;;;;;14.02;47.93;102519.88;145002;923;1019;-87
2022/02/10 18:16:48;;;;;;;;;;;;;;;13.99;47.95;102514.50;145002;923;1021;-86
2022/02/10 18:19:24;;;;;;;;;;;;;;;13.95;47.83;102518.69;145002;926;1021;-86
2022/02/10 18:24:51;;;;;;;;;;;;;;;13.89;48.11;102534.97;145002;918;1024;-87
2022/02/10 18:27:28;;;;;;;;;;;;;;;13.84;48.30;102530.34;145002;918;1019;-85
2022/02/10 18:37:38;;;;;;;;;;;;;;;13.66;48.15;102538.25;145002;921;1022;-86
2022/02/10 19:09:40;;;;;;;;;;;;;;;13.18;48.65;102543.81;145002;919;1020;-86
2022/02/10 19:12:16;;;;;;;;;;;;;;;13.13;48.53;102538.37;145002;919;1018;-86
2022/02/10 19:14:51;;;;;;;;;;;;;;;13.10;48.43;102548.66;145002;923;1019;-87
2022/02/10 19:17:17;;;;;;;;;;;;;;;13.08;48.49;102542.47;145002;918;1021;-85
2022/02/10 19:19:43;;;;;;;;;;;;;;;13.06;48.50;102539.78;145002;919;1020;-87
2022/02/10 19:22:09;;;;;;;;;;;;;;;13.05;48.46;102540.59;145002;919;1022;-86
2022/02/10 19:24:35;;;;;;;;;;;;;;;13.03;48.48;102539.63;145002;922;1018;-85
2022/02/10 19:27:01;;;;;;;;;;;;;;;13.02;48.40;102540.44;145002;914;1019;-88
2022/02/10 19:29:28;;;;;;;;;;;;;;;13.02;48.61;102540.44;145002;919;1020;-86
2022/02/10 19:31:54;;;;;;;;;;;;;;;13.03;48.54;102536.16;145002;918;1024;-86
2022/02/10 19:34:21;;;;;;;;;;;;;;;13.04;48.35;102535.31;145002;923;1018;-87
2022/02/10 19:36:49;;;;;;;;;;;;;;;13.05;48.43;102537.09;145002;919;1020;-87
2022/02/10 19:39:19;;;;;;;;;;;;;;;13.06;48.42;102541.50;145002;922;1018;-84
2022/02/10 19:41:48;;;;;;;;;;;;;;;13.06;48.48;102539.78;145002;918;1022;-85
2022/02/10 19:44:15;;;;;;;;;;;;;;;13.07;48.31;102538.97;145002;923;1022;-83
2022/02/10 19:46:45;;;;;;;;;;;;;;;13.04;48.38;102544.06;145002;918;1018;-85
2022/02/10 19:49:21;;;;;;;;;;;;;;;13.00;48.44;102544.69;145001;922;1998;-82
2022/02/10 19:51:48;;;;;;;;;;;;;;;12.99;48.27;102534.19;145002;921;1019;-85
2022/02/10 19:54:15;;;;;;;;;;;;;;;12.97;48.41;102538.44;145002;924;1016;-83
2022/02/10 19:56:45;;;;;;;;;;;;;;;12.96;48.68;102547.09;145002;920;1016;-84
2022/02/10 19:59:19;;;;;;;;;;;;;;;12.99;48.65;102545.50;145002;925;1017;-86
2022/02/10 20:01:48;;;;;;;;;;;;;;;13.04;48.43;102543.13;145002;920;1016;-82
2022/02/10 20:04:14;;;;;;;;;;;;;;;13.07;48.59;102545.88;145002;925;1017;-85
2022/02/10 20:06:40;;;;;;;;;;;;;;;13.06;48.39;102546.72;145002;921;1020;-84
2022/02/10 20:09:06;;;;;;;;;;;;;;;13.02;48.38;102547.38;145002;920;1021;-85
2022/02/10 20:11:33;;;;;;;;;;;;;;;12.97;48.42;102541.94;145002;920;1020;-83
2022/02/10 20:13:59;;;;;;;;;;;;;;;12.94;48.99;102541.78;145002;925;1020;-83
2022/02/10 20:16:26;;;;;;;;;;;;;;;12.90;48.60;102539.88;145002;920;1018;-82
2022/02/10 20:18:52;;;;;;;;;;;;;;;12.86;48.69;102545.75;145002;925;1017;-85
2022/02/10 20:21:18;;;;;;;;;;;;;;;12.84;48.67;102547.38;145002;917;1019;-85
2022/02/10 20:23:45;;;;;;;;;;;;;;;12.79;48.90;102549.75;145002;924;1023;-89
2022/02/10 20:26:12;;;;;;;;;;;;;;;12.76;48.98;102547.00;145002;920;1020;-87
2022/02/10 20:28:39;;;;;;;;;;;;;;;12.74;49.08;102543.41;145002;925;1021;-85
2022/02/10 20:31:05;;;;;;;;;;;;;;;12.73;48.97;102545.97;145002;920;1019;-84
2022/02/10 20:33:32;;;;;;;;;;;;;;;12.69;48.91;102543.19;145002;924;1017;-82
2022/02/10 20:36:01;;;;;;;;;;;;;;;12.64;48.87;102552.47;145002;921;1019;-81
2022/02/10 20:38:29;;;;;;;;;;;;;;;12.62;48.85;102546.28;145002;924;1020;-82
2022/02/10 20:41:08;;;;;;;;;;;;;;;12.60;49.12;102547.03;145002;920;1018;-84
2022/02/10 20:43:37;;;;;;;;;;;;;;;12.57;49.13;102545.19;145002;925;1019;-83
2022/02/10 20:46:20;;;;;;;;;;;;;;;12.57;49.22;102550.38;145002;916;1022;-84
2022/02/10 20:48:47;;;;;;;;;;;;;;;12.54;49.32;102542.41;145002;925;1019;-85
2022/02/10 20:51:14;;;;;;;;;;;;;;;12.52;49.20;102539.72;145002;921;1023;-84
2022/02/10 20:53:42;;;;;;;;;;;;;;;12.49;49.21;102539.56;145002;924;1019;-84
2022/02/10 20:56:12;;;;;;;;;;;;;;;12.49;49.30;102533.47;145002;920;1018;-84
2022/02/10 20:58:38;;;;;;;;;;;;;;;12.46;49.29;102531.59;145002;925;1019;-86
2022/02/10 21:01:05;;;;;;;;;;;;;;;12.46;49.43;102533.31;145002;920;1020;-84
2022/02/10 21:03:37;;;;;;;;;;;;;;;12.46;49.43;102533.31;145002;925;1023;-85
2022/02/10 21:06:30;;;;;;;;;;;;;;;12.49;49.55;102531.75;145002;921;1018;-83
2022/02/10 21:09:05;;;;;;;;;;;;;;;12.55;49.45;102527.66;145002;924;1018;-89
2022/02/10 21:11:36;;;;;;;;;;;;;;;12.60;49.51;102523.56;145002;921;1018;-85
2022/02/10 21:14:06;;;;;;;;;;;;;;;12.66;49.18;102519.59;145001;925;1998;-87
2022/02/10 21:16:36;;;;;;;;;;;;;;;12.72;49.38;102524.19;145002;922;1016;-86
2022/02/10 21:19:02;;;;;;;;;;;;;;;12.75;49.32;102523.47;145001;927;2000;-86
2022/02/10 21:21:30;;;;;;;;;;;;;;;12.77;49.33;102524.44;145002;923;1020;-85
2022/02/10 21:24:01;;;;;;;;;;;;;;;12.79;49.15;102525.37;145002;927;1018;-85
2022/02/10 21:26:38;;;;;;;;;;;;;;;12.79;49.17;102520.19;145002;922;1022;-85
2022/02/10 21:29:06;;;;;;;;;;;;;;;12.76;49.20;102507.00;145002;927;1017;-85
2022/02/10 21:31:41;;;;;;;;;;;;;;;12.74;49.08;102511.25;145002;922;1022;-86
2022/02/10 21:34:21;;;;;;;;;;;;;;;12.70;49.06;102510.22;145002;927;1018;-87
2022/02/10 21:37:02;;;;;;;;;;;;;;;12.63;49.05;102508.09;145002;923;1021;-86
2022/02/10 21:39:59;;;;;;;;;;;;;;;12.57;49.11;102503.50;145002;926;1019;-85
2022/02/10 22:02:35;;;;;;;;;;;;;;;12.19;50.05;102496.34;145002;919;1022;-86
2022/02/10 22:21:38;;;;;;;;;;;;;;;12.06;49.98;102481.81;145002;919;1021;-85
2022/02/10 22:24:09;;;;;;;;;;;;;;;12.04;49.64;102486.00;145002;927;1017;-85
2022/02/10 22:26:37;;;;;;;;;;;;;;;12.01;49.75;102480.66;145002;923;1018;-86
2022/02/10 22:29:14;;;;;;;;;;;;;;;12.00;49.53;102492.78;145002;927;1021;-86
2022/02/10 22:31:54;;;;;;;;;;;;;;;11.97;49.52;102488.28;145002;923;1020;-84
2022/02/10 22:34:36;;;;;;;;;;;;;;;11.95;49.54;102483.84;145002;927;1016;-87
2022/02/10 22:37:06;;;;;;;;;;;;;;;11.92;49.45;102484.56;145002;923;1021;-85
2022/02/10 22:39:37;;;;;;;;;;;;;;;11.91;49.37;102477.53;145002;926;1021;-85
2022/02/10 22:42:04;;;;;;;;;;;;;;;11.89;49.32;102486.97;145002;923;1017;-85
2022/02/10 22:44:30;;;;;;;;;;;;;;;11.88;49.45;102473.87;145002;927;1018;-86
2022/02/10 22:46:57;;;;;;;;;;;;;;;11.91;49.50;102476.66;145002;923;1021;-87
2022/02/10 22:49:23;;;;;;;;;;;;;;;11.95;49.63;102478.63;145002;927;1019;-85
2022/02/10 22:51:51;;;;;;;;;;;;;;;11.98;49.52;102481.41;145002;923;1021;-87
2022/02/10 22:54:17;;;;;;;;;;;;;;;12.02;49.61;102479.84;145002;926;1017;-89
2022/02/10 22:56:44;;;;;;;;;;;;;;;12.03;49.29;102476.44;145002;919;1017;-87
2022/02/10 22:59:12;;;;;;;;;;;;;;;12.03;49.33;102479.03;145002;927;1019;-87
2022/02/10 23:01:41;;;;;;;;;;;;;;;12.01;49.32;102483.25;145002;922;1021;-87
2022/02/10 23:04:09;;;;;;;;;;;;;;;11.98;49.31;102473.59;145002;927;1020;-89
2022/02/10 23:06:35;;;;;;;;;;;;;;;11.95;49.26;102466.50;145002;923;1017;-88
2022/02/10 23:09:01;;;;;;;;;;;;;;;11.93;49.38;102460.34;145002;922;1018;-88
2022/02/10 23:11:29;;;;;;;;;;;;;;;11.92;49.39;102460.25;145002;923;1017;-88
2022/02/10 23:13:59;;;;;;;;;;;;;;;11.92;49.28;102452.44;145002;927;1019;-87
2022/02/10 23:16:25;;;;;;;;;;;;;;;11.90;49.43;102461.84;145002;922;1020;-87
2022/02/10 23:18:53;;;;;;;;;;;;;;;11.88;49.73;102459.19;145002;927;1017;-88
2022/02/10 23:21:19;;;;;;;;;;;;;;;11.87;49.60;102453.91;145002;923;1019;-87
2022/02/10 23:23:49;;;;;;;;;;;;;;;11.86;49.75;102449.50;145002;927;1018;-86
2022/02/10 23:26:27;;;;;;;;;;;;;;;;;;;;;
2022/02/10 23:29:22;;;;;;;;;;;;;;;11.89;49.92;102444.44;145002;923;1018;-87
2022/02/10 23:31:52;;;;;;;;;;;;;;;11.98;49.91;102443.25;145002;920;1015;-86
2022/02/10 23:34:25;;;;;;;;;;;;;;;12.06;49.70;102437.56;145002;925;1021;-86
2022/02/10 23:36:53;;;;;;;;;;;;;;;12.07;49.55;102428.91;145002;920;1018;-86
2022/02/10 23:39:25;;;;;;;;;;;;;;;12.05;49.56;102430.56;145002;924;1017;-85
2022/02/10 23:42:02;;;;;;;;;;;;;;;12.04;49.53;102427.06;145002;921;1021;-88
2022/02/10 23:44:42;;;;;;;;;;;;;;;12.07;49.39;102436.72;145002;924;1018;-86
2022/02/10 23:47:11;;;;;;;;;;;;;;;12.09;49.47;102428.19;145002;921;1017;-86
2022/02/10 23:49:38;;;;;;;;;;;;;;;12.09;49.35;102428.19;145002;925;1021;-87
2022/02/10 23:52:07;;;;;;;;;;;;;;;12.07;49.17;102428.91;145002;920;1017;-86
2022/02/10 23:54:35;;;;;;;;;;;;;;;12.03;49.21;102421.78;145002;924;1020;-86
2022/02/10 23:57:09;;;;;;;;;;;;;;;12.00;49.06;102424.22;145002;921;1020;-89
